Time;durP1;ratioP1;P1;durP2;ratioP2;P2;SDS_P1;SDS_P2;PMS_P1;PMS_P2;Temp;Humidity;BMP_temperature;BMP_pressure;BME280_temperature;BME280_humidity;BME280_pressure;Samples;Min_cycle;Max_cycle;Signal;HPM_P1;HPM_P2
2022/05/16 00:01:27;;;;;;;44.33;13.45;;;;;;;9.12;74.00;101126.78;5085919;28;20350;-73
2022/05/16 00:03:53;;;;;;;32.92;12.85;;;;;;;8.94;74.19;101106.78;5085950;28;20025;-71
2022/05/16 00:06:18;;;;;;;40.25;13.70;;;;;;;8.95;74.80;101129.22;5085987;28;20611;-71
2022/05/16 00:08:44;;;;;;;33.40;12.23;;;;;;;8.86;75.57;101127.44;5085813;28;20029;-71
2022/05/16 00:11:09;;;;;;;37.03;12.55;;;;;;;8.92;76.83;101127.47;5085869;28;20028;-72
2022/05/16 00:13:34;;;;;;;48.05;14.27;;;;;;;8.99;77.37;101125.81;5085406;28;20350;-71
2022/05/16 00:16:00;;;;;;;44.17;13.23;;;;;;;9.10;77.76;101131.09;5067584;28;20016;-72
2022/05/16 00:18:26;;;;;;;38.47;13.63;;;;;;;9.21;77.62;101132.91;5085559;28;20024;-71
2022/05/16 00:20:51;;;;;;;49.40;13.90;;;;;;;9.31;77.42;101129.56;5085556;28;20092;-72
2022/05/16 00:23:16;;;;;;;43.55;15.10;;;;;;;9.39;77.35;101132.22;5085310;28;20032;-71
2022/05/16 00:25:42;;;;;;;42.47;14.30;;;;;;;9.38;77.68;101133.94;5085713;28;20051;-71
2022/05/16 00:28:07;;;;;;;47.42;14.90;;;;;;;9.39;77.67;101134.81;5085520;28;20043;-71
2022/05/16 00:30:32;;;;;;;46.60;15.23;;;;;;;9.38;78.37;101136.53;5085025;28;20027;-72
2022/05/16 00:32:58;;;;;;;39.70;14.80;;;;;;;9.45;77.84;101136.56;5085464;28;20158;-71
2022/05/16 00:35:23;;;;;;;47.75;17.27;;;;;;;9.46;77.72;101138.28;5084788;28;20337;-71
2022/05/16 00:37:49;;;;;;;51.42;17.50;;;;;;;9.48;77.89;101147.84;5084834;28;20060;-71
2022/05/16 00:40:16;;;;;;;43.05;17.35;;;;;;;9.48;78.06;101141.78;5085072;28;20024;-71
2022/05/16 00:42:42;;;;;;;35.00;15.85;;;;;;;9.52;78.85;101146.16;5085077;28;20025;-70
2022/05/16 00:45:09;;;;;;;46.28;16.70;;;;;;;9.52;78.61;101143.56;5066822;28;20066;-70
2022/05/16 00:47:35;;;;;;;55.38;15.98;;;;;;;9.52;78.16;101151.34;5084987;28;20031;-70
2022/05/16 00:50:03;;;;;;;44.35;15.27;;;;;;;9.49;78.02;101153.91;5084929;28;20020;-70
2022/05/16 00:52:36;;;;;;;49.00;15.25;;;;;;;9.46;77.74;101154.72;5084932;28;20032;-70
2022/05/16 00:55:09;;;;;;;47.42;16.10;;;;;;;9.41;77.48;101159.00;5085284;28;20028;-70
2022/05/16 00:57:53;;;;;;;45.15;14.90;;;;;;;9.35;77.23;101158.94;5085011;28;20024;-70
2022/05/16 01:00:24;;;;;;;48.03;16.05;;;;;;;9.30;77.19;101164.09;5084647;28;20170;-71
2022/05/16 01:05:41;;;;;;;60.83;20.25;;;;;;;9.23;77.04;101170.97;5084964;28;20036;-71
2022/05/16 01:08:11;;;;;;;58.08;20.77;;;;;;;9.17;77.57;101169.16;5084801;28;20021;-70
2022/05/16 01:10:37;;;;;;;58.22;21.20;;;;;;;9.16;77.35;101171.72;5084776;28;20111;-70
2022/05/16 01:13:04;;;;;;;62.53;22.15;;;;;;;9.15;77.55;101175.19;5085294;28;20025;-71
2022/05/16 01:15:38;;;;;;;59.92;22.70;;;;;;;9.11;77.61;101173.41;5084469;28;20031;-70
2022/05/16 01:18:06;;;;;;;68.63;22.10;;;;;;;9.03;77.42;101171.63;5084580;28;20044;-72
2022/05/16 01:20:51;;;;;;;63.42;22.08;;;;;;;9.00;77.34;101173.28;5084226;28;20016;-71
2022/05/16 01:23:20;;;;;;;63.42;22.10;;;;;;;9.00;77.52;101181.06;5084438;28;20024;-72
2022/05/16 01:25:47;;;;;;;69.93;22.35;;;;;;;8.97;77.45;101178.44;5084593;28;20085;-71
2022/05/16 01:28:18;;;;;;;75.38;24.15;;;;;;;8.91;77.41;101174.94;5066292;28;20083;-69
2022/05/16 01:30:46;;;;;;;69.00;23.70;;;;;;;8.82;77.65;101166.22;5084136;28;20025;-71
2022/05/16 01:33:19;;;;;;;64.95;22.83;;;;;;;8.70;77.89;101152.28;5066242;28;20040;-70
2022/05/16 01:35:45;;;;;;;73.45;24.65;;;;;;;8.77;78.18;101171.34;5084495;28;20024;-71
2022/05/16 01:38:22;;;;;;;72.22;22.10;;;;;;;8.71;78.47;101168.66;5083865;28;20090;-71
2022/05/16 01:40:53;;;;;;;54.72;20.98;;;;;;;8.63;79.39;101169.44;5066016;28;20071;-71
2022/05/16 01:43:21;;;;;;;55.28;19.75;;;;;;;8.55;79.34;101156.41;5065948;28;20027;-71
2022/05/16 01:45:47;;;;;;;51.97;17.15;;;;;;;8.51;78.97;101149.44;5065863;28;20343;-70
2022/05/16 01:48:15;;;;;;;44.72;15.45;;;;;;;8.49;78.80;101161.50;5083015;28;20088;-70
2022/05/16 01:50:42;;;;;;;44.05;14.75;;;;;;;8.42;78.76;101163.13;5083773;28;20032;-71
2022/05/16 01:53:08;;;;;;;38.53;15.85;;;;;;;8.38;78.59;101163.94;5083857;28;20024;-71
2022/05/16 01:55:34;;;;;;;43.15;16.55;;;;;;;8.31;78.54;101163.00;5065582;28;20020;-71
2022/05/16 01:57:59;;;;;;;50.42;16.30;;;;;;;8.31;78.33;101168.16;5083568;28;20106;-70
2022/05/16 02:00:25;;;;;;;45.65;17.45;;;;;;;8.27;78.20;101166.41;5083438;28;20047;-72
2022/05/16 02:02:50;;;;;;;49.42;17.90;;;;;;;8.25;78.46;101167.22;5083559;28;20369;-71
2022/05/16 02:05:19;;;;;;;44.55;18.17;;;;;;;8.23;78.33;101177.53;5083369;28;20025;-70
2022/05/16 02:07:45;;;;;;;61.50;20.08;;;;;;;8.18;78.38;101169.72;5083531;28;20055;-70
2022/05/16 02:10:13;;;;;;;64.93;23.08;;;;;;;8.16;78.86;101179.16;5083395;28;20028;-70
2022/05/16 02:12:39;;;;;;;53.28;21.10;;;;;;;8.08;78.78;101174.72;5065238;28;20036;-70
2022/05/16 02:15:08;;;;;;;50.65;17.45;;;;;;;8.09;78.72;101190.28;5083074;28;20020;-71
2022/05/16 02:17:34;;;;;;;55.53;21.02;;;;;;;8.04;78.53;101179.88;5065227;28;20440;-71
2022/05/16 02:19:59;;;;;;;48.60;18.73;;;;;;;8.07;78.68;101181.63;5065093;28;20024;-71
2022/05/16 02:25:10;;;;;;;52.35;21.45;;;;;;;8.03;78.52;101192.78;5083645;28;20442;-71
2022/05/16 02:27:36;;;;;;;71.45;23.00;;;;;;;8.03;78.59;101183.31;5083282;28;20047;-70
2022/05/16 02:30:03;;;;;;;74.82;26.75;;;;;;;8.03;78.65;101185.91;5064828;28;20016;-71
2022/05/16 02:32:29;;;;;;;91.90;28.80;;;;;;;7.93;79.09;101169.38;5065103;28;20027;-71
2022/05/16 02:34:55;;;;;;;60.13;23.75;;;;;;;8.03;79.04;101185.91;5083123;28;20020;-70
2022/05/16 02:37:20;;;;;;;77.38;26.20;;;;;;;8.05;79.35;101186.75;5083051;28;20016;-71
2022/05/16 02:39:46;;;;;;;72.63;26.08;;;;;;;8.12;79.34;101187.72;5083079;28;20088;-70
2022/05/16 02:42:14;;;;;;;78.03;24.95;;;;;;;8.13;79.56;101176.53;5083162;28;20024;-71
2022/05/16 02:44:40;;;;;;;152.20;38.95;;;;;;;8.24;79.52;101178.41;5082623;28;20031;-70
2022/05/16 02:47:05;;;;;;;123.57;35.78;;;;;;;8.35;79.66;101192.38;5064780;28;20017;-71
2022/05/16 02:49:31;;;;;;;187.95;38.88;;;;;;;8.37;80.10;101182.88;5082582;28;20054;-71
2022/05/16 02:51:57;;;;;;;152.82;36.22;;;;;;;8.46;80.19;101181.28;5082774;28;20020;-72
2022/05/16 02:54:22;;;;;;;90.25;31.58;;;;;;;8.52;80.44;101183.94;5082820;28;20032;-71
2022/05/16 02:56:47;;;;;;;111.85;35.08;;;;;;;8.60;80.56;101195.28;5083245;28;20016;-72
2022/05/16 02:59:13;;;;;;;104.03;33.35;;;;;;;8.73;80.32;101196.31;5084457;28;20028;-71
2022/05/16 03:01:38;;;;;;;96.15;30.98;;;;;;;8.79;80.49;101193.81;5087205;28;20024;-71
2022/05/16 03:04:04;;;;;;;97.13;32.65;;;;;;;8.87;80.63;101190.41;5068920;28;20027;-71
2022/05/16 03:06:29;;;;;;;102.65;33.05;;;;;;;8.99;80.64;101200.94;5087140;28;20060;-72
2022/05/16 03:08:55;;;;;;;92.60;32.55;;;;;;;9.04;80.56;101193.22;5086814;28;20494;-71
2022/05/16 03:11:22;;;;;;;170.25;32.72;;;;;;;9.02;80.85;101184.56;5086824;28;20020;-71
2022/05/16 03:13:48;;;;;;;115.07;32.83;;;;;;;8.96;81.13;101172.38;5086282;28;20031;-70
2022/05/16 03:16:13;;;;;;;213.60;39.10;;;;;;;9.01;81.61;101178.50;5086860;28;20092;-71
2022/05/16 03:18:38;;;;;;;478.58;61.10;;;;;;;9.12;81.59;101194.13;5086515;28;20024;-72
2022/05/16 03:21:04;;;;;;;109.70;34.78;;;;;;;9.22;81.45;101197.69;5086544;28;20024;-71
2022/05/16 03:23:29;;;;;;;284.33;49.95;;;;;;;9.25;81.58;101207.25;5068533;28;20025;-71
2022/05/16 03:25:54;;;;;;;261.40;42.17;;;;;;;9.33;81.21;101199.53;5086754;28;20016;-71
2022/05/16 03:28:20;;;;;;;389.75;54.88;;;;;;;9.37;81.37;101209.06;5086586;28;20024;-71
2022/05/16 03:30:47;;;;;;;250.07;37.17;;;;;;;9.34;81.24;101212.50;5085923;28;20028;-70
2022/05/16 03:33:13;;;;;;;144.02;35.78;;;;;;;9.32;81.16;101219.41;5068165;28;20013;-71
2022/05/16 03:35:38;;;;;;;269.75;46.38;;;;;;;9.30;81.23;101209.00;5067985;28;20032;-70
2022/05/16 03:38:04;;;;;;;115.72;35.03;;;;;;;9.22;81.36;101191.66;5067884;28;20078;-70
2022/05/16 03:40:41;;;;;;;456.90;52.35;;;;;;;9.25;81.47;101202.06;5086234;28;20032;-71
2022/05/16 03:43:07;;;;;;;296.77;41.70;;;;;;;9.13;81.67;101219.22;5086224;28;20028;-70
2022/05/16 03:45:33;;;;;;;324.77;41.38;;;;;;;9.02;81.86;101216.50;5085892;28;20032;-70
2022/05/16 03:47:58;;;;;;;201.50;32.22;;;;;;;9.02;82.18;101218.22;5086123;28;20070;-64
2022/05/16 03:50:24;;;;;;;255.80;35.33;;;;;;;8.90;82.32;101203.41;5086391;28;20449;-70
2022/05/16 03:52:49;;;;;;;151.27;31.08;;;;;;;9.03;82.40;101217.38;5086211;28;20070;-72
2022/05/16 03:55:16;;;;;;;628.75;69.35;;;;;;;9.02;82.45;101213.91;5085936;28;20052;-70
2022/05/16 03:57:42;;;;;;;477.88;52.13;;;;;;;8.88;82.35;101189.59;5086220;28;20025;-70
2022/05/16 04:00:10;;;;;;;417.48;44.03;;;;;;;8.97;82.40;101207.81;5085731;28;20035;-70
2022/05/16 04:02:40;;;;;;;290.95;34.08;;;;;;;8.95;82.48;101206.03;5085703;28;20017;-69
2022/05/16 04:05:06;;;;;;;353.23;34.50;;;;;;;8.99;82.49;101210.41;5067704;28;20020;-72
2022/05/16 04:07:33;;;;;;;253.38;30.90;;;;;;;8.90;82.33;101203.41;5085694;28;20032;-71
2022/05/16 04:09:59;;;;;;;378.52;35.45;;;;;;;8.87;82.70;101212.00;5084987;28;20436;-69
2022/05/16 04:12:24;;;;;;;155.43;23.17;;;;;;;8.88;82.85;101212.91;5085529;28;20040;-69
2022/05/16 04:14:50;;;;;;;254.27;30.95;;;;;;;8.95;82.91;101208.63;5085331;28;20028;-67
2022/05/16 04:17:15;;;;;;;101.85;22.15;;;;;;;9.03;83.12;101207.88;5067654;28;20012;-71
2022/05/16 04:19:40;;;;;;;589.20;53.53;;;;;;;9.09;82.91;101206.22;5067281;28;20493;-72
2022/05/16 04:22:06;;;;;;;637.72;61.67;;;;;;;9.16;82.67;101211.47;5067426;28;20221;-71
2022/05/16 04:24:31;;;;;;;265.65;30.02;;;;;;;9.10;82.42;101198.47;5085050;28;20465;-72
2022/05/16 04:26:56;;;;;;;162.07;22.13;;;;;;;9.15;82.48;101220.06;5066944;28;20027;-72
2022/05/16 04:29:22;;;;;;;516.63;46.25;;;;;;;9.19;82.45;101218.41;5084719;28;20020;-71
2022/05/16 04:31:50;;;;;;;259.40;27.27;;;;;;;9.08;82.41;101204.47;5085660;28;20028;-73
2022/05/16 04:34:16;;;;;;;475.02;41.45;;;;;;;8.91;82.20;101169.75;5085029;28;20021;-72
2022/05/16 04:36:41;;;;;;;358.50;34.90;;;;;;;9.07;81.93;101203.59;5085199;28;20024;-72
2022/05/16 04:39:07;;;;;;;175.00;27.05;;;;;;;8.98;82.17;101194.00;5084980;28;20528;-73
2022/05/16 04:44:16;;;;;;;412.27;39.60;;;;;;;9.18;82.46;101211.50;5085062;28;20058;-73
2022/05/16 04:46:41;;;;;;;196.15;25.27;;;;;;;9.18;82.23;101217.53;5085268;28;20032;-73
2022/05/16 04:49:07;;;;;;;94.65;22.48;;;;;;;9.03;82.57;101199.22;5085092;28;20032;-73
2022/05/16 04:51:32;;;;;;;82.43;21.77;;;;;;;9.17;82.52;101214.91;5067030;28;20047;-73
2022/05/16 04:53:58;;;;;;;71.70;20.42;;;;;;;9.15;81.90;101212.31;5085106;28;20457;-73
2022/05/16 04:56:23;;;;;;;106.97;20.90;;;;;;;9.21;82.29;101221.00;5085509;28;20432;-73
2022/05/16 04:58:48;;;;;;;114.45;21.23;;;;;;;9.23;81.97;101229.66;5085098;28;20459;-74
2022/05/16 05:01:14;;;;;;;198.57;27.20;;;;;;;9.08;81.88;101205.34;5066717;28;20020;-74
2022/05/16 05:03:40;;;;;;;56.53;19.23;;;;;;;9.10;81.90;101232.13;5085041;28;20021;-74
2022/05/16 05:06:06;;;;;;;58.45;19.75;;;;;;;9.15;82.23;101227.00;5085174;28;20050;-73
2022/05/16 05:08:31;;;;;;;113.53;19.77;;;;;;;9.00;82.09;101196.59;5067076;28;20341;-73
2022/05/16 05:16:24;;;;;;;21.58;10.55;;;;;;;10.45;84.93;101226.28;5085100;28;20035;-75
2022/05/16 05:18:50;;;;;;;15.25;9.02;;;;;;;11.87;87.07;101234.44;5084866;28;20017;-73
2022/05/16 05:21:16;;;;;;;16.70;7.75;;;;;;;13.23;85.98;101241.84;5084985;28;20074;-73
2022/05/16 05:23:42;;;;;;;11.45;7.00;;;;;;;14.41;81.88;101233.09;5084601;28;20377;-75
2022/05/16 05:26:09;;;;;;;10.07;6.05;;;;;;;15.39;79.46;101238.78;5066703;28;20031;-73
2022/05/16 05:28:35;;;;;;;10.77;5.90;;;;;;;16.07;71.60;101229.00;5084670;28;20323;-73
2022/05/16 05:31:01;;;;;;;10.00;4.60;;;;;;;16.42;66.41;101234.47;5084091;28;20046;-72
2022/05/16 05:33:27;;;;;;;6.90;4.07;;;;;;;16.41;62.43;101240.56;5084305;28;20023;-79
2022/05/16 05:35:52;;;;;;;6.57;3.67;;;;;;;16.22;61.43;101225.22;5084255;28;20048;-78
2022/05/16 05:38:18;;;;;;;6.68;4.35;;;;;;;16.41;62.21;101227.47;5083962;28;20049;-80
2022/05/16 05:40:44;;;;;;;7.22;3.80;;;;;;;16.75;59.10;101239.91;5084315;28;20025;-81
2022/05/16 05:43:09;;;;;;;8.82;4.55;;;;;;;16.63;57.63;101240.16;5084104;28;20035;-76
2022/05/16 05:45:36;;;;;;;11.13;4.22;;;;;;;16.46;53.94;101236.97;5083981;28;20021;-80
2022/05/16 05:48:02;;;;;;;5.72;3.45;;;;;;;15.85;54.84;101243.28;5066269;28;20020;-78
2022/05/16 05:50:28;;;;;;;10.07;3.50;;;;;;;15.10;54.31;101239.22;5066213;28;20032;-79
2022/05/16 05:52:53;;;;;;;6.47;3.13;;;;;;;14.56;54.68;101243.34;5066366;28;20016;-79
2022/05/16 05:55:19;;;;;;;6.25;2.97;;;;;;;14.33;55.52;101247.06;5084188;28;20046;-76
2022/05/16 05:57:44;;;;;;;4.55;2.75;;;;;;;14.46;55.59;101246.94;5084250;28;20518;-78
2022/05/16 06:00:12;;;;;;;6.20;2.83;;;;;;;14.73;55.54;101243.13;5083778;28;20412;-77
2022/05/16 06:02:40;;;;;;;4.85;2.83;;;;;;;14.99;54.38;101241.97;5066059;28;20028;-77
2022/05/16 06:05:17;;;;;;;6.70;3.60;;;;;;;15.20;53.39;101234.72;5083715;28;20084;-76
2022/05/16 06:07:43;;;;;;;5.40;2.42;;;;;;;15.27;52.29;101245.09;5083675;28;20146;-78
2022/05/16 06:10:09;;;;;;;4.78;2.42;;;;;;;15.15;51.33;101257.44;5083333;28;20643;-74
2022/05/16 06:12:34;;;;;;;5.55;2.83;;;;;;;14.79;51.62;101252.66;5083316;28;20059;-78
2022/05/16 06:15:00;;;;;;;3.58;2.40;;;;;;;14.48;51.92;101250.41;5083096;28;20031;-78
2022/05/16 06:17:26;;;;;;;4.15;2.10;;;;;;;14.24;52.36;101257.63;5083402;28;20480;-79
2022/05/16 06:19:51;;;;;;;4.10;2.35;;;;;;;14.05;52.23;101247.38;5064913;28;20103;-80
2022/05/16 06:22:17;;;;;;;4.43;2.25;;;;;;;14.04;51.86;101247.38;5083576;28;20088;-78
2022/05/16 06:27:31;;;;;;;4.28;2.38;;;;;;;13.78;51.90;101272.81;5083677;28;20031;-79
2022/05/16 06:29:57;;;;;;;2.40;1.80;;;;;;;13.64;51.76;101265.13;5083077;28;20029;-76
2022/05/16 06:32:22;;;;;;;4.82;1.73;;;;;;;13.60;51.79;101266.88;5083789;28;20031;-82
2022/05/16 06:34:48;;;;;;;4.45;1.80;;;;;;;13.54;51.60;101246.03;5082957;28;20034;-80
2022/05/16 06:37:14;;;;;;;2.25;1.48;;;;;;;13.85;50.45;101250.16;5083440;28;20055;-78
2022/05/16 06:39:39;;;;;;;6.65;1.80;;;;;;;13.78;50.46;101233.69;5082903;28;20076;-79
2022/05/16 06:42:05;;;;;;;2.95;1.42;;;;;;;14.04;49.39;101257.81;5083354;28;20039;-82
2022/05/16 06:44:30;;;;;;;4.88;2.00;;;;;;;14.05;48.90;101264.75;5064798;28;20024;-80
2022/05/16 06:46:56;;;;;;;3.80;1.83;;;;;;;14.03;48.58;101267.38;5083205;28;20032;-80
2022/05/16 06:49:22;;;;;;;3.13;1.60;;;;;;;13.91;48.69;101257.06;5083449;28;20108;-85
2022/05/16 06:51:48;;;;;;;2.85;1.42;;;;;;;13.99;48.19;101269.16;5083820;28;20024;-80
2022/05/16 06:54:13;;;;;;;3.92;1.60;;;;;;;13.93;48.08;101265.75;5083494;28;20124;-80
2022/05/16 06:56:38;;;;;;;5.10;1.52;;;;;;;14.03;47.86;101250.84;5083500;28;20027;-80
2022/05/16 06:59:04;;;;;;;2.55;1.35;;;;;;;14.18;47.19;101249.84;5083286;28;20562;-80
2022/05/16 07:01:29;;;;;;;3.45;1.60;;;;;;;14.13;47.81;101232.50;5065072;28;20020;-80
2022/05/16 07:03:54;;;;;;;2.90;1.38;;;;;;;14.49;46.82;101252.13;5083018;28;20084;-78
2022/05/16 07:06:19;;;;;;;2.97;1.40;;;;;;;14.49;47.16;101223.38;5083317;28;20024;-80
2022/05/16 07:08:45;;;;;;;2.97;1.95;;;;;;;14.74;46.78;101255.31;5083667;28;20043;-80
2022/05/16 07:11:10;;;;;;;2.17;1.40;;;;;;;14.97;46.77;101228.06;5083084;28;20020;-79
2022/05/16 07:13:36;;;;;;;3.20;1.30;;;;;;;15.49;44.41;101250.88;5083226;28;20024;-79
2022/05/16 07:16:01;;;;;;;3.42;1.20;;;;;;;15.46;44.49;101230.81;5064756;28;20032;-79
2022/05/16 07:18:28;;;;;;;2.15;1.30;;;;;;;15.67;44.51;101256.69;5082641;28;20059;-79
2022/05/16 07:20:55;;;;;;;4.68;1.65;;;;;;;15.91;44.72;101262.41;5082808;28;20024;-79
2022/05/16 07:23:21;;;;;;;3.28;1.40;;;;;;;16.28;43.85;101272.25;5082648;28;20024;-77
2022/05/16 07:28:47;;;;;;;2.58;1.13;;;;;;;16.46;41.54;101278.03;5020267;28;20079;-77
2022/05/16 07:31:12;;;;;;;3.53;1.10;;;;;;;16.29;41.61;101268.75;5020126;28;20348;-81
2022/05/16 07:33:38;;;;;;;2.65;1.20;;;;;;;16.19;40.85;101277.66;5020868;28;20029;-79
2022/05/16 07:36:04;;;;;;;3.42;1.00;;;;;;;16.15;41.42;101276.84;5003900;28;20038;-80
2022/05/16 07:38:29;;;;;;;3.63;1.20;;;;;;;16.17;41.20;101279.44;5020025;28;20062;-79
2022/05/16 07:40:56;;;;;;;3.40;1.40;;;;;;;16.18;41.11;101276.78;5020332;28;20164;-77
2022/05/16 07:43:22;;;;;;;2.92;1.00;;;;;;;16.33;40.30;101283.53;5003685;28;20034;-81
2022/05/16 07:45:48;;;;;;;2.30;1.05;;;;;;;16.44;40.46;101282.44;5021195;28;20034;-78
2022/05/16 07:48:14;;;;;;;4.70;1.10;;;;;;;16.68;40.91;101268.00;5024018;28;20447;-77
2022/05/16 07:50:40;;;;;;;1.80;1.05;;;;;;;17.29;39.36;101272.00;5023775;28;20030;-76
2022/05/16 07:53:11;;;;;;;6.13;1.20;;;;;;;17.70;38.47;101287.66;5023619;28;20026;-77
2022/05/16 07:55:45;;;;;;;3.80;1.45;;;;;;;17.86;37.80;101281.19;5006894;28;20470;-76
2022/05/16 07:58:11;;;;;;;1.17;0.90;;;;;;;17.82;37.27;101273.38;5023726;28;20038;-78
2022/05/16 08:00:36;;;;;;;3.08;1.05;;;;;;;17.85;36.93;101269.81;5023277;28;20036;-78
2022/05/16 08:03:02;;;;;;;2.08;1.20;;;;;;;17.86;36.74;101281.19;5061209;28;20040;-78
2022/05/16 08:05:28;;;;;;;3.97;1.00;;;;;;;17.94;36.51;101274.81;5085731;28;20045;-78
2022/05/16 08:10:39;;;;;;;4.30;1.05;;;;;;;18.74;35.75;101267.44;5085746;28;20031;-80
2022/05/16 08:13:09;;;;;;;2.08;0.85;;;;;;;18.74;34.98;101271.88;5067559;28;20066;-78
2022/05/16 08:15:36;;;;;;;3.10;1.00;;;;;;;18.69;35.04;101277.25;5085420;28;20033;-78
2022/05/16 08:18:02;;;;;;;1.42;0.80;;;;;;;18.78;34.29;101278.75;5085856;28;20093;-78
2022/05/16 08:20:28;;;;;;;1.48;0.75;;;;;;;18.77;33.61;101279.66;5067414;28;20030;-78
2022/05/16 08:22:54;;;;;;;3.90;1.10;;;;;;;18.73;34.96;101267.50;5085425;28;20115;-77
2022/05/16 08:25:19;;;;;;;3.53;0.70;;;;;;;19.38;34.03;101277.88;5085639;28;20047;-77
2022/05/16 08:27:45;;;;;;;2.72;0.60;;;;;;;19.61;32.88;101273.63;5085516;28;20028;-77
2022/05/16 08:30:12;;;;;;;1.88;0.90;;;;;;;19.44;32.07;101259.25;5067465;28;20017;-77
2022/05/16 08:32:37;;;;;;;2.55;0.60;;;;;;;19.40;31.66;101263.75;5085743;28;20025;-78
2022/05/16 08:35:07;;;;;;;2.67;0.70;;;;;;;19.46;31.73;101288.19;5085135;28;20111;-77
2022/05/16 08:40:20;;;;;;;2.05;0.75;;;;;;;19.43;30.97;101268.06;5085467;28;20035;-76
2022/05/16 08:43:03;;;;;;;2.45;0.65;;;;;;;19.26;31.05;101274.72;5085338;28;20089;-77
2022/05/16 08:45:34;;;;;;;1.13;0.60;;;;;;;19.16;30.68;101263.63;5084859;28;20024;-77
2022/05/16 08:48:36;;;;;;;1.27;0.70;;;;;;;18.97;30.86;101271.19;5085350;28;20027;-77
2022/05/16 08:51:24;;;;;;;2.58;1.02;;;;;;;18.83;31.18;101275.06;5070860;28;20047;-77
2022/05/16 08:53:59;;;;;;;2.83;0.80;;;;;;;19.16;31.01;101276.78;5067028;28;20028;-77
2022/05/16 08:56:30;;;;;;;2.47;0.80;;;;;;;19.66;29.95;101269.09;5084552;28;20051;-76
2022/05/16 08:58:56;;;;;;;1.25;0.85;;;;;;;19.85;30.50;101269.34;5066659;28;20131;-76
2022/05/16 09:01:28;;;;;;;1.15;0.55;;;;;;;20.43;31.06;101260.31;5084579;28;20028;-77
2022/05/16 09:04:01;;;;;;;1.35;0.65;;;;;;;21.07;29.17;101265.00;5084813;28;20024;-77
2022/05/16 09:06:39;;;;;;;0.98;0.60;;;;;;;21.05;27.93;101278.28;5084693;28;20060;-77
2022/05/16 09:09:12;;;;;;;0.80;0.70;;;;;;;21.07;28.35;101277.38;5066451;28;20028;-77
2022/05/16 09:11:40;;;;;;;1.10;0.50;;;;;;;20.91;27.79;101280.56;5084590;28;20021;-77
2022/05/16 09:14:08;;;;;;;1.50;0.65;;;;;;;20.43;27.44;101267.38;5066185;28;20021;-76
2022/05/16 09:16:57;;;;;;;1.13;0.40;;;;;;;20.33;27.53;101276.53;5066291;28;20059;-77
2022/05/16 09:19:41;;;;;;;1.10;0.77;;;;;;;19.85;27.01;101271.97;5084242;28;20017;-78
2022/05/16 09:22:31;;;;;;;1.25;0.70;;;;;;;19.36;27.82;101270.00;5084244;28;20456;-77
2022/05/16 09:25:11;;;;;;;1.05;0.63;;;;;;;19.32;28.61;101268.41;5066487;28;20094;-77
2022/05/16 09:30:26;;;;;;;1.25;0.68;;;;;;;18.93;29.08;101275.66;5084034;28;20095;-77
2022/05/16 09:33:01;;;;;;;1.42;0.57;;;;;;;18.69;29.46;101272.84;5084037;28;20104;-78
2022/05/16 09:35:54;;;;;;;2.15;0.82;;;;;;;18.56;29.40;101267.06;5083986;28;20128;-77
2022/05/16 09:38:22;;;;;;;5.45;0.80;;;;;;;18.64;29.53;101268.63;5065423;28;20041;-77
2022/05/16 09:40:59;;;;;;;2.40;0.63;;;;;;;18.96;29.38;101266.84;5083934;28;20112;-77
2022/05/16 09:43:30;;;;;;;1.10;0.52;;;;;;;19.10;28.92;101271.72;5083869;28;20488;-77
2022/05/16 09:46:01;;;;;;;1.52;0.45;;;;;;;19.27;27.83;101279.06;5083759;28;20063;-77
2022/05/16 09:48:27;;;;;;;1.58;0.70;;;;;;;19.30;28.03;101260.56;5083637;28;20119;-77
2022/05/16 09:51:05;;;;;;;1.20;0.60;;;;;;;19.73;27.69;101262.69;5083850;28;20029;-77
2022/05/16 09:53:43;;;;;;;1.13;0.60;;;;;;;20.40;26.88;101268.34;5083386;28;20016;-77
2022/05/16 09:56:33;;;;;;;1.55;0.70;;;;;;;20.69;26.35;101270.81;5083714;28;20028;-77
2022/05/16 09:59:03;;;;;;;1.80;0.60;;;;;;;20.71;26.28;101269.00;5083425;28;20025;-76
2022/05/16 10:01:40;;;;;;;1.58;0.60;;;;;;;21.03;25.93;101277.50;5083352;28;20125;-77
2022/05/16 10:04:15;;;;;;;2.20;0.60;;;;;;;20.55;25.43;101259.00;5065534;28;20060;-76
2022/05/16 10:06:54;;;;;;;1.33;0.60;;;;;;;20.09;26.32;101281.75;5083457;28;20076;-76
2022/05/16 10:09:32;;;;;;;1.90;1.05;;;;;;;19.85;26.98;101273.72;5082662;28;20032;-76
2022/05/16 10:11:59;;;;;;;1.30;0.60;;;;;;;19.67;27.07;101279.56;5065514;28;20476;-76
2022/05/16 10:14:24;;;;;;;1.15;0.55;;;;;;;19.39;27.27;101272.53;5083227;28;20027;-76
2022/05/16 10:16:52;;;;;;;6.32;0.63;;;;;;;19.38;27.51;101278.72;5065334;28;20037;-77
2022/05/16 10:19:22;;;;;;;0.70;0.40;;;;;;;19.21;26.67;101271.38;5083027;28;20028;-76
2022/05/16 10:21:53;;;;;;;1.75;0.80;;;;;;;19.16;27.20;101270.66;5083167;28;20059;-76
2022/05/16 10:24:20;;;;;;;1.33;0.70;;;;;;;19.18;27.01;101263.56;5083088;28;20033;-75
2022/05/16 10:26:48;;;;;;;1.48;1.02;;;;;;;19.36;27.13;101269.16;5083080;28;20028;-76
2022/05/16 10:29:27;;;;;;;1.20;0.70;;;;;;;19.60;26.50;101264.03;5065182;28;20089;-76
2022/05/16 10:34:51;;;;;;;1.08;0.50;;;;;;;20.11;25.95;101266.75;5083490;28;20108;-76
2022/05/16 10:37:17;;;;;;;0.95;0.50;;;;;;;20.00;26.29;101260.03;5082906;28;20025;-76
2022/05/16 10:39:49;;;;;;;2.63;0.70;;;;;;;20.28;25.58;101264.38;5064606;28;20376;-76
2022/05/16 10:42:39;;;;;;;2.92;0.93;;;;;;;20.40;25.56;101264.84;5083109;28;20020;-75
2022/05/16 10:45:12;;;;;;;1.83;0.70;;;;;;;20.44;25.61;101253.28;5082813;28;20024;-76
2022/05/16 10:47:46;;;;;;;1.80;0.40;;;;;;;20.49;25.43;101261.88;5064918;28;20503;-76
2022/05/16 10:50:14;;;;;;;1.00;0.60;;;;;;;20.35;25.67;101266.78;5082972;28;20099;-76
2022/05/16 10:52:58;;;;;;;1.05;0.45;;;;;;;20.64;25.84;101265.72;5082978;28;20017;-76
2022/05/16 10:55:26;;;;;;;1.58;0.80;;;;;;;20.55;25.81;101253.75;5082103;28;20030;-76
2022/05/16 10:58:08;;;;;;;2.08;0.50;;;;;;;20.13;25.81;101251.72;5082890;28;20028;-76
2022/05/16 11:00:55;;;;;;;0.85;0.38;;;;;;;19.89;26.12;101255.13;5082844;28;20032;-76
2022/05/16 11:03:31;;;;;;;3.45;0.60;;;;;;;19.30;26.22;101254.41;5082044;28;20496;-76
2022/05/16 11:05:56;;;;;;;1.05;0.50;;;;;;;18.86;26.75;101258.34;5083008;28;20095;-76
2022/05/16 11:08:36;;;;;;;0.75;0.43;;;;;;;18.65;27.19;101249.31;5082928;28;20271;-76
2022/05/16 11:11:27;;;;;;;1.30;0.50;;;;;;;18.57;27.04;101247.78;5064878;28;20055;-76
2022/05/16 11:14:10;;;;;;;1.40;0.60;;;;;;;18.16;27.94;101239.28;5082716;28;20028;-76
2022/05/16 11:16:40;;;;;;;1.52;0.60;;;;;;;18.07;28.10;101261.34;5082795;28;20028;-77
2022/05/16 11:19:17;;;;;;;3.50;1.00;;;;;;;17.84;28.07;101249.69;5064646;28;20025;-76
2022/05/16 11:21:52;;;;;;;1.15;0.50;;;;;;;17.78;28.05;101250.69;5086611;28;20441;-77
2022/05/16 11:24:41;;;;;;;1.27;0.47;;;;;;;17.54;28.75;101244.31;5086584;28;20035;-76
2022/05/16 11:27:22;;;;;;;1.65;0.70;;;;;;;17.40;28.91;101242.00;5068614;28;20031;-76
2022/05/16 11:30:19;;;;;;;2.00;1.00;;;;;;;17.49;29.13;101254.06;5086232;28;20031;-76
2022/05/16 11:32:44;;;;;;;1.15;0.60;;;;;;;17.62;29.02;101242.34;5086626;28;20260;-77
2022/05/16 11:35:39;;;;;;;1.73;0.70;;;;;;;17.69;28.98;101240.44;5086433;28;20032;-77
2022/05/16 11:38:14;;;;;;;1.02;0.60;;;;;;;17.42;29.36;101240.22;5076603;28;20045;-77
2022/05/16 11:41:04;;;;;;;0.77;0.60;;;;;;;17.11;29.24;101222.56;5086118;28;20020;-76
2022/05/16 11:43:41;;;;;;;1.85;0.60;;;;;;;17.27;29.31;101250.16;5086156;28;20020;-75
2022/05/16 11:46:26;;;;;;;1.30;0.60;;;;;;;17.03;29.52;101239.28;5068265;28;20052;-76
2022/05/16 11:48:57;;;;;;;1.00;0.70;;;;;;;17.03;29.17;101238.44;5067969;28;20024;-76
2022/05/16 11:51:53;;;;;;;2.45;0.60;;;;;;;17.02;29.67;101242.81;5086099;28;20486;-76
2022/05/16 11:54:23;;;;;;;3.17;0.70;;;;;;;16.96;30.18;101232.47;5086345;28;20025;-77
2022/05/16 12:02:28;;;;;;;0.60;0.40;;;;;;;17.21;29.85;101238.06;5086033;28;20047;-76
2022/05/16 12:05:09;;;;;;;1.45;0.55;;;;;;;17.24;29.87;101237.13;5085932;28;20392;-75